sensor_id;sensor_type;location;lat;lon;timestamp;temperature;humidity
15959;DHT22;8078;47.822;9.402;2024-03-25T00:02:00;1.20;99.90
15959;DHT22;8078;47.822;9.402;2024-03-25T00:04:26;1.10;99.90
15959;DHT22;8078;47.822;9.402;2024-03-25T00:06:52;1.10;99.90
15959;DHT22;8078;47.822;9.402;2024-03-25T00:09:18;1.10;99.90
15959;DHT22;8078;47.822;9.402;2024-03-25T00:11:44;1.10;99.90
15959;DHT22;8078;47.822;9.402;2024-03-25T00:14:09;1.10;99.90
15959;DHT22;8078;47.822;9.402;2024-03-25T00:16:36;1.10;99.90
15959;DHT22;8078;47.822;9.402;2024-03-25T00:19:02;1.10;99.90
15959;DHT22;8078;47.822;9.402;2024-03-25T00:21:30;1.10;99.90
15959;DHT22;8078;47.822;9.402;2024-03-25T00:23:57;1.10;99.90
15959;DHT22;8078;47.822;9.402;2024-03-25T00:26:23;1.10;99.90
15959;DHT22;8078;47.822;9.402;2024-03-25T00:28:50;1.10;99.90
15959;DHT22;8078;47.822;9.402;2024-03-25T00:31:15;1.10;99.90
15959;DHT22;8078;47.822;9.402;2024-03-25T00:33:42;1.10;99.90
15959;DHT22;8078;47.822;9.402;2024-03-25T00:36:07;1.10;99.90
15959;DHT22;8078;47.822;9.402;2024-03-25T00:38:35;1.00;99.90
15959;DHT22;8078;47.822;9.402;2024-03-25T00:41:02;1.10;99.90
15959;DHT22;8078;47.822;9.402;2024-03-25T00:43:28;1.10;99.90
15959;DHT22;8078;47.822;9.402;2024-03-25T00:45:53;1.10;99.90
15959;DHT22;8078;47.822;9.402;2024-03-25T00:48:20;1.10;99.90
15959;DHT22;8078;47.822;9.402;2024-03-25T00:50:46;1.10;99.90
15959;DHT22;8078;47.822;9.402;2024-03-25T00:53:11;1.10;99.90
15959;DHT22;8078;47.822;9.402;2024-03-25T00:55:37;1.10;99.90
15959;DHT22;8078;47.822;9.402;2024-03-25T00:58:03;1.10;99.90
15959;DHT22;8078;47.822;9.402;2024-03-25T01:00:29;1.00;99.90
15959;DHT22;8078;47.822;9.402;2024-03-25T01:02:54;1.00;99.90
15959;DHT22;8078;47.822;9.402;2024-03-25T01:05:20;1.00;99.90
15959;DHT22;8078;47.822;9.402;2024-03-25T01:07:46;1.00;99.90
15959;DHT22;8078;47.822;9.402;2024-03-25T01:10:14;1.00;99.90
15959;DHT22;8078;47.822;9.402;2024-03-25T01:12:40;1.10;99.90
15959;DHT22;8078;47.822;9.402;2024-03-25T01:15:06;1.10;99.90
15959;DHT22;8078;47.822;9.402;2024-03-25T01:17:32;1.10;99.90
15959;DHT22;8078;47.822;9.402;2024-03-25T01:19:59;1.10;99.90
15959;DHT22;8078;47.822;9.402;2024-03-25T01:22:25;1.10;99.90
15959;DHT22;8078;47.822;9.402;2024-03-25T01:24:53;1.10;99.90
15959;DHT22;8078;47.822;9.402;2024-03-25T01:27:19;1.10;99.90
15959;DHT22;8078;47.822;9.402;2024-03-25T01:29:45;1.10;99.90
15959;DHT22;8078;47.822;9.402;2024-03-25T01:32:10;1.00;99.90
15959;DHT22;8078;47.822;9.402;2024-03-25T01:34:36;1.00;99.90
15959;DHT22;8078;47.822;9.402;2024-03-25T01:37:01;1.10;99.90
15959;DHT22;8078;47.822;9.402;2024-03-25T01:39:27;1.10;99.90
15959;DHT22;8078;47.822;9.402;2024-03-25T01:41:52;1.10;99.90
15959;DHT22;8078;47.822;9.402;2024-03-25T01:44:18;1.10;99.90
15959;DHT22;8078;47.822;9.402;2024-03-25T01:46:45;1.10;99.90
15959;DHT22;8078;47.822;9.402;2024-03-25T01:49:13;1.10;99.90
15959;DHT22;8078;47.822;9.402;2024-03-25T01:51:40;1.10;99.90
15959;DHT22;8078;47.822;9.402;2024-03-25T01:54:07;1.00;99.90
15959;DHT22;8078;47.822;9.402;2024-03-25T01:56:35;1.10;99.90
15959;DHT22;8078;47.822;9.402;2024-03-25T01:59:02;1.10;99.90
15959;DHT22;8078;47.822;9.402;2024-03-25T02:01:28;1.10;99.90
15959;DHT22;8078;47.822;9.402;2024-03-25T02:03:55;1.10;99.90
15959;DHT22;8078;47.822;9.402;2024-03-25T02:06:21;1.10;99.90
15959;DHT22;8078;47.822;9.402;2024-03-25T02:08:48;1.10;99.90
15959;DHT22;8078;47.822;9.402;2024-03-25T02:11:14;1.10;99.90
15959;DHT22;8078;47.822;9.402;2024-03-25T02:13:40;1.10;99.90
15959;DHT22;8078;47.822;9.402;2024-03-25T02:16:07;1.10;99.90
15959;DHT22;8078;47.822;9.402;2024-03-25T02:18:33;1.00;99.90
15959;DHT22;8078;47.822;9.402;2024-03-25T02:20:59;1.00;99.90
15959;DHT22;8078;47.822;9.402;2024-03-25T02:23:26;1.00;99.90
15959;DHT22;8078;47.822;9.402;2024-03-25T02:25:54;1.00;99.90
15959;DHT22;8078;47.822;9.402;2024-03-25T02:28:22;1.00;99.90
15959;DHT22;8078;47.822;9.402;2024-03-25T02:30:50;1.00;99.90
15959;DHT22;8078;47.822;9.402;2024-03-25T02:33:16;1.10;99.90
15959;DHT22;8078;47.822;9.402;2024-03-25T02:35:42;1.00;99.90
15959;DHT22;8078;47.822;9.402;2024-03-25T02:38:09;1.00;99.90
15959;DHT22;8078;47.822;9.402;2024-03-25T02:40:35;1.00;99.90
15959;DHT22;8078;47.822;9.402;2024-03-25T02:43:01;1.00;99.90
15959;DHT22;8078;47.822;9.402;2024-03-25T02:45:27;1.00;99.90
15959;DHT22;8078;47.822;9.402;2024-03-25T02:47:55;1.10;99.90
15959;DHT22;8078;47.822;9.402;2024-03-25T02:50:22;1.00;99.90
15959;DHT22;8078;47.822;9.402;2024-03-25T02:52:47;1.00;99.90
15959;DHT22;8078;47.822;9.402;2024-03-25T02:55:13;1.00;99.90
15959;DHT22;8078;47.822;9.402;2024-03-25T02:57:38;1.00;99.90
15959;DHT22;8078;47.822;9.402;2024-03-25T03:00:04;1.00;99.90
15959;DHT22;8078;47.822;9.402;2024-03-25T03:02:30;0.90;99.90
15959;DHT22;8078;47.822;9.402;2024-03-25T03:04:56;1.00;99.90
15959;DHT22;8078;47.822;9.402;2024-03-25T03:07:21;1.00;99.90
15959;DHT22;8078;47.822;9.402;2024-03-25T03:09:47;1.00;99.90
15959;DHT22;8078;47.822;9.402;2024-03-25T03:12:12;1.00;99.90
15959;DHT22;8078;47.822;9.402;2024-03-25T03:14:38;1.00;99.90
15959;DHT22;8078;47.822;9.402;2024-03-25T03:17:03;1.00;99.90
15959;DHT22;8078;47.822;9.402;2024-03-25T03:19:30;1.00;99.90
15959;DHT22;8078;47.822;9.402;2024-03-25T03:21:56;1.00;99.90
15959;DHT22;8078;47.822;9.402;2024-03-25T03:24:22;1.00;99.90
15959;DHT22;8078;47.822;9.402;2024-03-25T03:26:48;1.10;99.90
15959;DHT22;8078;47.822;9.402;2024-03-25T03:29:14;1.00;99.90
15959;DHT22;8078;47.822;9.402;2024-03-25T03:31:40;1.00;99.90
15959;DHT22;8078;47.822;9.402;2024-03-25T03:34:06;1.10;99.90
15959;DHT22;8078;47.822;9.402;2024-03-25T03:36:31;1.00;99.90
15959;DHT22;8078;47.822;9.402;2024-03-25T03:38:57;1.00;99.90
15959;DHT22;8078;47.822;9.402;2024-03-25T03:41:22;0.90;99.90
15959;DHT22;8078;47.822;9.402;2024-03-25T03:43:48;1.00;99.90
15959;DHT22;8078;47.822;9.402;2024-03-25T03:46:14;1.00;99.90
15959;DHT22;8078;47.822;9.402;2024-03-25T03:48:39;1.00;99.90
15959;DHT22;8078;47.822;9.402;2024-03-25T03:51:05;0.90;99.90
15959;DHT22;8078;47.822;9.402;2024-03-25T03:53:35;0.90;99.90
15959;DHT22;8078;47.822;9.402;2024-03-25T03:56:03;0.90;99.90
15959;DHT22;8078;47.822;9.402;2024-03-25T03:58:30;1.00;99.90
15959;DHT22;8078;47.822;9.402;2024-03-25T04:00:56;1.00;99.90
15959;DHT22;8078;47.822;9.402;2024-03-25T04:03:22;1.00;99.90
15959;DHT22;8078;47.822;9.402;2024-03-25T04:05:47;0.90;99.90
15959;DHT22;8078;47.822;9.402;2024-03-25T04:08:13;0.90;99.90
15959;DHT22;8078;47.822;9.402;2024-03-25T04:10:39;0.90;99.90
15959;DHT22;8078;47.822;9.402;2024-03-25T04:13:06;0.90;99.90
15959;DHT22;8078;47.822;9.402;2024-03-25T04:15:34;0.80;99.90
15959;DHT22;8078;47.822;9.402;2024-03-25T04:18:02;0.90;99.90
15959;DHT22;8078;47.822;9.402;2024-03-25T04:20:35;0.80;99.90
15959;DHT22;8078;47.822;9.402;2024-03-25T04:23:01;0.80;99.90
15959;DHT22;8078;47.822;9.402;2024-03-25T04:25:27;0.80;99.90
15959;DHT22;8078;47.822;9.402;2024-03-25T04:27:52;0.80;99.90
15959;DHT22;8078;47.822;9.402;2024-03-25T04:30:18;0.80;99.90
15959;DHT22;8078;47.822;9.402;2024-03-25T04:32:44;0.80;99.90
15959;DHT22;8078;47.822;9.402;2024-03-25T04:35:10;0.80;99.90
15959;DHT22;8078;47.822;9.402;2024-03-25T04:37:36;0.80;99.90
15959;DHT22;8078;47.822;9.402;2024-03-25T04:40:05;0.80;99.90
15959;DHT22;8078;47.822;9.402;2024-03-25T04:42:32;0.80;99.90
15959;DHT22;8078;47.822;9.402;2024-03-25T04:44:58;0.80;99.90
15959;DHT22;8078;47.822;9.402;2024-03-25T04:47:23;0.80;99.90
15959;DHT22;8078;47.822;9.402;2024-03-25T04:49:49;0.70;99.90
15959;DHT22;8078;47.822;9.402;2024-03-25T04:52:15;0.70;99.90
15959;DHT22;8078;47.822;9.402;2024-03-25T04:54:44;0.80;99.90
15959;DHT22;8078;47.822;9.402;2024-03-25T04:57:09;0.80;99.90
15959;DHT22;8078;47.822;9.402;2024-03-25T04:59:36;0.80;99.90
15959;DHT22;8078;47.822;9.402;2024-03-25T05:02:02;0.80;99.90
15959;DHT22;8078;47.822;9.402;2024-03-25T05:04:27;0.80;99.90
15959;DHT22;8078;47.822;9.402;2024-03-25T05:06:53;0.80;99.90
15959;DHT22;8078;47.822;9.402;2024-03-25T05:09:18;0.80;99.90
15959;DHT22;8078;47.822;9.402;2024-03-25T05:11:45;0.80;99.90
15959;DHT22;8078;47.822;9.402;2024-03-25T05:14:11;0.80;99.90
15959;DHT22;8078;47.822;9.402;2024-03-25T05:16:36;0.80;99.90
15959;DHT22;8078;47.822;9.402;2024-03-25T05:19:02;0.80;99.90
15959;DHT22;8078;47.822;9.402;2024-03-25T05:21:30;0.80;99.90
15959;DHT22;8078;47.822;9.402;2024-03-25T05:23:56;0.80;99.90
15959;DHT22;8078;47.822;9.402;2024-03-25T05:26:21;0.70;99.90
15959;DHT22;8078;47.822;9.402;2024-03-25T05:28:52;0.80;99.90
15959;DHT22;8078;47.822;9.402;2024-03-25T05:31:18;0.70;99.90
15959;DHT22;8078;47.822;9.402;2024-03-25T05:33:43;0.80;99.90
15959;DHT22;8078;47.822;9.402;2024-03-25T05:36:09;0.80;99.90
15959;DHT22;8078;47.822;9.402;2024-03-25T05:38:37;0.70;99.90
15959;DHT22;8078;47.822;9.402;2024-03-25T05:41:04;0.60;99.90
15959;DHT22;8078;47.822;9.402;2024-03-25T05:43:30;0.70;99.90
15959;DHT22;8078;47.822;9.402;2024-03-25T05:45:56;0.70;99.90
15959;DHT22;8078;47.822;9.402;2024-03-25T05:48:24;0.70;99.90
15959;DHT22;8078;47.822;9.402;2024-03-25T05:51:03;0.70;99.90
15959;DHT22;8078;47.822;9.402;2024-03-25T05:53:35;0.80;99.90
15959;DHT22;8078;47.822;9.402;2024-03-25T05:56:01;0.70;99.90
15959;DHT22;8078;47.822;9.402;2024-03-25T05:58:28;0.70;99.90
15959;DHT22;8078;47.822;9.402;2024-03-25T06:00:53;0.70;99.90
15959;DHT22;8078;47.822;9.402;2024-03-25T06:03:19;0.70;99.90
15959;DHT22;8078;47.822;9.402;2024-03-25T06:05:45;0.70;99.90
15959;DHT22;8078;47.822;9.402;2024-03-25T06:08:11;0.70;99.90
15959;DHT22;8078;47.822;9.402;2024-03-25T06:10:55;0.80;99.90
15959;DHT22;8078;47.822;9.402;2024-03-25T06:13:25;0.80;99.90
15959;DHT22;8078;47.822;9.402;2024-03-25T06:15:51;0.80;99.90
15959;DHT22;8078;47.822;9.402;2024-03-25T06:18:19;1.00;99.90
15959;DHT22;8078;47.822;9.402;2024-03-25T06:20:46;1.00;99.90
15959;DHT22;8078;47.822;9.402;2024-03-25T06:23:26;1.00;99.90
15959;DHT22;8078;47.822;9.402;2024-03-25T06:25:52;0.90;99.90
15959;DHT22;8078;47.822;9.402;2024-03-25T06:28:18;1.00;99.90
15959;DHT22;8078;47.822;9.402;2024-03-25T06:30:45;1.10;99.90
15959;DHT22;8078;47.822;9.402;2024-03-25T06:33:30;1.10;99.90
15959;DHT22;8078;47.822;9.402;2024-03-25T06:36:14;1.20;99.90
15959;DHT22;8078;47.822;9.402;2024-03-25T06:38:39;1.20;99.90
15959;DHT22;8078;47.822;9.402;2024-03-25T06:41:06;1.10;99.90
15959;DHT22;8078;47.822;9.402;2024-03-25T06:43:32;1.10;99.90
15959;DHT22;8078;47.822;9.402;2024-03-25T06:45:57;1.20;99.90
15959;DHT22;8078;47.822;9.402;2024-03-25T06:48:23;1.10;99.90
15959;DHT22;8078;47.822;9.402;2024-03-25T06:53:20;1.00;99.90
15959;DHT22;8078;47.822;9.402;2024-03-25T06:55:56;1.10;99.90
15959;DHT22;8078;47.822;9.402;2024-03-25T06:58:23;1.30;99.90
15959;DHT22;8078;47.822;9.402;2024-03-25T07:00:49;1.30;99.90
15959;DHT22;8078;47.822;9.402;2024-03-25T07:03:16;1.30;99.90
15959;DHT22;8078;47.822;9.402;2024-03-25T07:05:49;1.30;99.90
15959;DHT22;8078;47.822;9.402;2024-03-25T07:08:17;1.40;99.90
15959;DHT22;8078;47.822;9.402;2024-03-25T07:10:44;1.30;99.90
15959;DHT22;8078;47.822;9.402;2024-03-25T07:13:12;1.30;99.90
15959;DHT22;8078;47.822;9.402;2024-03-25T07:15:38;1.30;99.90
15959;DHT22;8078;47.822;9.402;2024-03-25T07:18:04;1.50;99.90
15959;DHT22;8078;47.822;9.402;2024-03-25T07:20:30;1.40;99.90
15959;DHT22;8078;47.822;9.402;2024-03-25T07:22:57;1.60;99.90
15959;DHT22;8078;47.822;9.402;2024-03-25T07:25:26;1.70;99.90
15959;DHT22;8078;47.822;9.402;2024-03-25T07:27:53;1.60;99.90
15959;DHT22;8078;47.822;9.402;2024-03-25T07:30:18;1.80;99.90
15959;DHT22;8078;47.822;9.402;2024-03-25T07:32:44;1.80;99.90
15959;DHT22;8078;47.822;9.402;2024-03-25T07:35:13;1.70;99.90
15959;DHT22;8078;47.822;9.402;2024-03-25T07:37:46;1.80;99.90
15959;DHT22;8078;47.822;9.402;2024-03-25T07:40:11;1.70;99.90
15959;DHT22;8078;47.822;9.402;2024-03-25T07:42:37;1.80;99.90
15959;DHT22;8078;47.822;9.402;2024-03-25T07:45:03;2.00;99.90
15959;DHT22;8078;47.822;9.402;2024-03-25T07:47:30;2.10;99.90
15959;DHT22;8078;47.822;9.402;2024-03-25T07:49:56;2.20;99.90
15959;DHT22;8078;47.822;9.402;2024-03-25T07:52:21;2.50;99.90
15959;DHT22;8078;47.822;9.402;2024-03-25T07:54:47;2.90;99.90
15959;DHT22;8078;47.822;9.402;2024-03-25T07:57:12;3.40;99.90
15959;DHT22;8078;47.822;9.402;2024-03-25T07:59:38;3.40;87.10
15959;DHT22;8078;47.822;9.402;2024-03-25T08:02:04;3.20;99.90
15959;DHT22;8078;47.822;9.402;2024-03-25T08:04:30;3.30;99.90
15959;DHT22;8078;47.822;9.402;2024-03-25T08:06:56;3.50;78.40
15959;DHT22;8078;47.822;9.402;2024-03-25T08:09:22;3.50;26.40
15959;DHT22;8078;47.822;9.402;2024-03-25T08:11:47;3.70;99.70
15959;DHT22;8078;47.822;9.402;2024-03-25T08:14:15;3.30;40.40
15959;DHT22;8078;47.822;9.402;2024-03-25T08:16:41;3.50;99.90
15959;DHT22;8078;47.822;9.402;2024-03-25T08:19:06;3.30;17.90
15959;DHT22;8078;47.822;9.402;2024-03-25T08:21:32;3.60;1.00
15959;DHT22;8078;47.822;9.402;2024-03-25T08:23:57;3.40;1.00
15959;DHT22;8078;47.822;9.402;2024-03-25T08:26:23;3.80;1.00
15959;DHT22;8078;47.822;9.402;2024-03-25T08:28:48;3.90;1.00
15959;DHT22;8078;47.822;9.402;2024-03-25T08:31:14;4.60;1.00
15959;DHT22;8078;47.822;9.402;2024-03-25T08:33:40;4.70;1.00
15959;DHT22;8078;47.822;9.402;2024-03-25T08:36:06;5.30;1.00
15959;DHT22;8078;47.822;9.402;2024-03-25T08:38:31;5.70;1.00
15959;DHT22;8078;47.822;9.402;2024-03-25T08:40:57;6.10;1.00
15959;DHT22;8078;47.822;9.402;2024-03-25T08:43:23;5.70;1.00
15959;DHT22;8078;47.822;9.402;2024-03-25T08:45:48;5.60;1.00
15959;DHT22;8078;47.822;9.402;2024-03-25T08:48:14;6.20;1.00
15959;DHT22;8078;47.822;9.402;2024-03-25T08:50:40;6.30;1.00
15959;DHT22;8078;47.822;9.402;2024-03-25T08:53:06;6.20;1.00
15959;DHT22;8078;47.822;9.402;2024-03-25T08:55:31;6.20;1.00
15959;DHT22;8078;47.822;9.402;2024-03-25T08:57:59;5.50;1.00
15959;DHT22;8078;47.822;9.402;2024-03-25T09:00:26;5.90;1.00
15959;DHT22;8078;47.822;9.402;2024-03-25T09:02:53;6.90;1.00
15959;DHT22;8078;47.822;9.402;2024-03-25T09:05:20;7.70;1.00
15959;DHT22;8078;47.822;9.402;2024-03-25T09:07:49;8.20;1.00
15959;DHT22;8078;47.822;9.402;2024-03-25T09:10:17;8.60;13.20
15959;DHT22;8078;47.822;9.402;2024-03-25T09:13:01;8.90;17.40
15959;DHT22;8078;47.822;9.402;2024-03-25T09:15:28;8.60;1.00
15959;DHT22;8078;47.822;9.402;2024-03-25T09:17:54;8.40;1.00
15959;DHT22;8078;47.822;9.402;2024-03-25T09:20:19;8.90;14.70
15959;DHT22;8078;47.822;9.402;2024-03-25T09:22:46;9.00;15.50
15959;DHT22;8078;47.822;9.402;2024-03-25T09:25:14;8.50;1.20
15959;DHT22;8078;47.822;9.402;2024-03-25T09:27:40;7.90;1.00
15959;DHT22;8078;47.822;9.402;2024-03-25T09:30:06;7.30;1.00
15959;DHT22;8078;47.822;9.402;2024-03-25T09:32:35;7.80;1.00
15959;DHT22;8078;47.822;9.402;2024-03-25T09:35:01;8.20;1.00
15959;DHT22;8078;47.822;9.402;2024-03-25T09:37:26;7.60;1.00
15959;DHT22;8078;47.822;9.402;2024-03-25T09:39:52;7.40;1.00
15959;DHT22;8078;47.822;9.402;2024-03-25T09:42:28;7.10;1.00
15959;DHT22;8078;47.822;9.402;2024-03-25T09:44:55;7.50;1.00
15959;DHT22;8078;47.822;9.402;2024-03-25T09:47:21;7.70;1.00
15959;DHT22;8078;47.822;9.402;2024-03-25T09:49:49;8.30;1.00
15959;DHT22;8078;47.822;9.402;2024-03-25T09:52:15;8.90;9.30
15959;DHT22;8078;47.822;9.402;2024-03-25T09:54:42;9.30;18.60
15959;DHT22;8078;47.822;9.402;2024-03-25T09:57:08;9.80;26.20
15959;DHT22;8078;47.822;9.402;2024-03-25T09:59:34;10.00;26.80
15959;DHT22;8078;47.822;9.402;2024-03-25T10:02:01;10.10;20.20
15959;DHT22;8078;47.822;9.402;2024-03-25T10:04:27;10.30;27.50
15959;DHT22;8078;47.822;9.402;2024-03-25T10:06:52;9.90;20.70
15959;DHT22;8078;47.822;9.402;2024-03-25T10:09:22;9.70;16.60
15959;DHT22;8078;47.822;9.402;2024-03-25T10:11:49;9.70;15.90
15959;DHT22;8078;47.822;9.402;2024-03-25T10:14:16;9.50;1.70
15959;DHT22;8078;47.822;9.402;2024-03-25T10:16:42;9.40;1.00
15959;DHT22;8078;47.822;9.402;2024-03-25T10:19:09;8.80;1.00
15959;DHT22;8078;47.822;9.402;2024-03-25T10:21:41;9.20;1.00
15959;DHT22;8078;47.822;9.402;2024-03-25T10:24:07;9.70;11.50
15959;DHT22;8078;47.822;9.402;2024-03-25T10:26:33;10.10;24.10
15959;DHT22;8078;47.822;9.402;2024-03-25T10:29:05;10.80;28.60
15959;DHT22;8078;47.822;9.402;2024-03-25T10:31:36;11.00;48.80
15959;DHT22;8078;47.822;9.402;2024-03-25T10:34:01;10.90;48.20
15959;DHT22;8078;47.822;9.402;2024-03-25T10:36:27;11.40;56.80
15959;DHT22;8078;47.822;9.402;2024-03-25T10:38:56;11.60;59.40
15959;DHT22;8078;47.822;9.402;2024-03-25T10:41:22;11.80;66.00
15959;DHT22;8078;47.822;9.402;2024-03-25T10:43:49;11.50;60.30
15959;DHT22;8078;47.822;9.402;2024-03-25T10:46:22;11.20;33.80
15959;DHT22;8078;47.822;9.402;2024-03-25T10:49:02;10.90;31.60
15959;DHT22;8078;47.822;9.402;2024-03-25T10:51:31;10.70;26.40
15959;DHT22;8078;47.822;9.402;2024-03-25T10:53:57;11.30;43.90
15959;DHT22;8078;47.822;9.402;2024-03-25T10:56:26;12.00;52.30
15959;DHT22;8078;47.822;9.402;2024-03-25T10:58:55;12.50;69.60
15959;DHT22;8078;47.822;9.402;2024-03-25T11:01:22;12.70;83.40
15959;DHT22;8078;47.822;9.402;2024-03-25T11:03:49;12.90;86.40
15959;DHT22;8078;47.822;9.402;2024-03-25T11:06:15;12.50;82.10
15959;DHT22;8078;47.822;9.402;2024-03-25T11:08:42;12.00;36.50
15959;DHT22;8078;47.822;9.402;2024-03-25T11:11:13;12.00;28.40
15959;DHT22;8078;47.822;9.402;2024-03-25T11:13:38;11.80;44.80
15959;DHT22;8078;47.822;9.402;2024-03-25T11:16:06;11.70;41.80
15959;DHT22;8078;47.822;9.402;2024-03-25T11:18:33;11.90;35.70
15959;DHT22;8078;47.822;9.402;2024-03-25T11:21:05;12.00;41.40
15959;DHT22;8078;47.822;9.402;2024-03-25T11:23:44;12.20;54.90
15959;DHT22;8078;47.822;9.402;2024-03-25T11:26:25;11.00;14.90
15959;DHT22;8078;47.822;9.402;2024-03-25T11:28:55;11.30;21.80
15959;DHT22;8078;47.822;9.402;2024-03-25T11:31:23;11.60;31.20
15959;DHT22;8078;47.822;9.402;2024-03-25T11:33:51;11.70;40.90
15959;DHT22;8078;47.822;9.402;2024-03-25T11:36:16;11.40;27.00
15959;DHT22;8078;47.822;9.402;2024-03-25T11:38:46;12.00;53.60
15959;DHT22;8078;47.822;9.402;2024-03-25T11:41:14;12.80;61.00
15959;DHT22;8078;47.822;9.402;2024-03-25T11:43:42;12.40;50.80
15959;DHT22;8078;47.822;9.402;2024-03-25T11:46:07;11.80;36.80
15959;DHT22;8078;47.822;9.402;2024-03-25T11:48:33;12.10;33.10
15959;DHT22;8078;47.822;9.402;2024-03-25T11:50:58;12.60;60.60
15959;DHT22;8078;47.822;9.402;2024-03-25T11:53:26;11.90;34.70
15959;DHT22;8078;47.822;9.402;2024-03-25T11:55:52;12.10;43.60
15959;DHT22;8078;47.822;9.402;2024-03-25T11:58:18;12.00;46.60
15959;DHT22;8078;47.822;9.402;2024-03-25T12:00:47;12.10;36.50
15959;DHT22;8078;47.822;9.402;2024-03-25T12:03:17;10.70;1.00
15959;DHT22;8078;47.822;9.402;2024-03-25T12:05:46;11.40;18.00
15959;DHT22;8078;47.822;9.402;2024-03-25T12:08:11;11.80;29.80
15959;DHT22;8078;47.822;9.402;2024-03-25T12:10:40;12.50;47.30
15959;DHT22;8078;47.822;9.402;2024-03-25T12:13:26;12.00;23.70
15959;DHT22;8078;47.822;9.402;2024-03-25T12:15:53;11.80;17.30
15959;DHT22;8078;47.822;9.402;2024-03-25T12:18:19;11.80;14.60
15959;DHT22;8078;47.822;9.402;2024-03-25T12:20:45;11.90;27.50
15959;DHT22;8078;47.822;9.402;2024-03-25T12:23:13;11.90;22.90
15959;DHT22;8078;47.822;9.402;2024-03-25T12:25:39;11.70;14.50
15959;DHT22;8078;47.822;9.402;2024-03-25T12:28:09;11.70;1.90
15959;DHT22;8078;47.822;9.402;2024-03-25T12:30:52;12.10;12.40
15959;DHT22;8078;47.822;9.402;2024-03-25T12:33:18;12.40;39.70
15959;DHT22;8078;47.822;9.402;2024-03-25T12:35:48;12.90;42.20
15959;DHT22;8078;47.822;9.402;2024-03-25T12:38:28;13.10;61.30
15959;DHT22;8078;47.822;9.402;2024-03-25T12:41:02;12.90;43.00
15959;DHT22;8078;47.822;9.402;2024-03-25T12:43:30;12.70;40.40
15959;DHT22;8078;47.822;9.402;2024-03-25T12:45:57;12.80;47.80
15959;DHT22;8078;47.822;9.402;2024-03-25T12:48:23;13.50;62.00
15959;DHT22;8078;47.822;9.402;2024-03-25T12:50:48;13.20;47.90
15959;DHT22;8078;47.822;9.402;2024-03-25T12:53:17;12.80;22.80
15959;DHT22;8078;47.822;9.402;2024-03-25T12:55:43;13.00;26.90
15959;DHT22;8078;47.822;9.402;2024-03-25T12:58:08;13.00;45.10
15959;DHT22;8078;47.822;9.402;2024-03-25T13:00:36;13.00;48.50
15959;DHT22;8078;47.822;9.402;2024-03-25T13:03:09;12.80;27.00
15959;DHT22;8078;47.822;9.402;2024-03-25T13:05:38;13.50;61.00
15959;DHT22;8078;47.822;9.402;2024-03-25T13:08:03;13.50;59.30
15959;DHT22;8078;47.822;9.402;2024-03-25T13:10:31;14.20;70.80
15959;DHT22;8078;47.822;9.402;2024-03-25T13:13:01;14.60;82.90
15959;DHT22;8078;47.822;9.402;2024-03-25T13:15:27;14.10;50.20
15959;DHT22;8078;47.822;9.402;2024-03-25T13:17:54;14.50;84.20
15959;DHT22;8078;47.822;9.402;2024-03-25T13:20:19;15.00;91.10
15959;DHT22;8078;47.822;9.402;2024-03-25T13:22:45;14.30;66.70
15959;DHT22;8078;47.822;9.402;2024-03-25T13:25:13;14.20;33.80
15959;DHT22;8078;47.822;9.402;2024-03-25T13:27:38;13.90;27.00
15959;DHT22;8078;47.822;9.402;2024-03-25T13:30:06;13.50;27.10
15959;DHT22;8078;47.822;9.402;2024-03-25T13:32:31;13.20;19.20
15959;DHT22;8078;47.822;9.402;2024-03-25T13:34:57;13.00;22.70
15959;DHT22;8078;47.822;9.402;2024-03-25T13:37:23;13.00;9.70
15959;DHT22;8078;47.822;9.402;2024-03-25T13:39:49;12.40;1.00
15959;DHT22;8078;47.822;9.402;2024-03-25T13:42:15;12.60;3.50
15959;DHT22;8078;47.822;9.402;2024-03-25T13:44:41;12.70;3.30
15959;DHT22;8078;47.822;9.402;2024-03-25T13:47:07;13.10;9.80
15959;DHT22;8078;47.822;9.402;2024-03-25T13:49:34;13.20;13.80
15959;DHT22;8078;47.822;9.402;2024-03-25T13:52:00;13.60;36.00
15959;DHT22;8078;47.822;9.402;2024-03-25T13:54:28;13.80;34.20
15959;DHT22;8078;47.822;9.402;2024-03-25T13:56:56;14.00;32.10
15959;DHT22;8078;47.822;9.402;2024-03-25T13:59:22;13.00;4.50
15959;DHT22;8078;47.822;9.402;2024-03-25T14:01:47;12.80;1.50
15959;DHT22;8078;47.822;9.402;2024-03-25T14:04:15;13.00;1.00
15959;DHT22;8078;47.822;9.402;2024-03-25T14:06:41;13.00;2.60
15959;DHT22;8078;47.822;9.402;2024-03-25T14:09:07;13.50;17.60
15959;DHT22;8078;47.822;9.402;2024-03-25T14:11:38;14.00;31.30
15959;DHT22;8078;47.822;9.402;2024-03-25T14:14:03;14.60;49.00
15959;DHT22;8078;47.822;9.402;2024-03-25T14:16:29;15.00;51.80
15959;DHT22;8078;47.822;9.402;2024-03-25T14:18:55;15.50;75.10
15959;DHT22;8078;47.822;9.402;2024-03-25T14:21:20;14.70;28.10
15959;DHT22;8078;47.822;9.402;2024-03-25T14:23:46;14.00;14.80
15959;DHT22;8078;47.822;9.402;2024-03-25T14:26:15;14.10;19.50
15959;DHT22;8078;47.822;9.402;2024-03-25T14:28:41;13.80;6.10
15959;DHT22;8078;47.822;9.402;2024-03-25T14:31:06;13.90;10.80
15959;DHT22;8078;47.822;9.402;2024-03-25T14:33:32;13.80;8.30
15959;DHT22;8078;47.822;9.402;2024-03-25T14:35:58;12.90;1.00
15959;DHT22;8078;47.822;9.402;2024-03-25T14:38:23;13.00;1.00
15959;DHT22;8078;47.822;9.402;2024-03-25T14:40:49;13.60;9.80
15959;DHT22;8078;47.822;9.402;2024-03-25T14:43:15;14.60;27.70
15959;DHT22;8078;47.822;9.402;2024-03-25T14:45:46;14.90;34.20
15959;DHT22;8078;47.822;9.402;2024-03-25T14:48:14;15.30;39.10
15959;DHT22;8078;47.822;9.402;2024-03-25T14:50:42;14.00;12.80
15959;DHT22;8078;47.822;9.402;2024-03-25T14:53:08;13.70;9.10
15959;DHT22;8078;47.822;9.402;2024-03-25T14:55:33;14.40;20.00
15959;DHT22;8078;47.822;9.402;2024-03-25T14:57:59;14.80;23.00
15959;DHT22;8078;47.822;9.402;2024-03-25T15:00:24;15.10;21.90
15959;DHT22;8078;47.822;9.402;2024-03-25T15:02:53;15.70;49.10
15959;DHT22;8078;47.822;9.402;2024-03-25T15:05:18;16.00;52.20
15959;DHT22;8078;47.822;9.402;2024-03-25T15:07:48;15.40;26.70
15959;DHT22;8078;47.822;9.402;2024-03-25T15:10:14;15.30;22.70
15959;DHT22;8078;47.822;9.402;2024-03-25T15:12:39;15.50;26.10
15959;DHT22;8078;47.822;9.402;2024-03-25T15:15:08;14.80;3.90
15959;DHT22;8078;47.822;9.402;2024-03-25T15:17:35;15.20;14.40
15959;DHT22;8078;47.822;9.402;2024-03-25T15:20:03;15.50;29.40
15959;DHT22;8078;47.822;9.402;2024-03-25T15:22:29;15.60;23.40
15959;DHT22;8078;47.822;9.402;2024-03-25T15:24:56;15.00;1.90
15959;DHT22;8078;47.822;9.402;2024-03-25T15:27:23;15.50;22.10
15959;DHT22;8078;47.822;9.402;2024-03-25T15:29:50;15.50;22.80
15959;DHT22;8078;47.822;9.402;2024-03-25T15:32:16;16.50;51.90
15959;DHT22;8078;47.822;9.402;2024-03-25T15:34:41;17.40;76.30
15959;DHT22;8078;47.822;9.402;2024-03-25T15:37:07;18.20;94.20
15959;DHT22;8078;47.822;9.402;2024-03-25T15:39:35;18.90;94.10
15959;DHT22;8078;47.822;9.402;2024-03-25T15:42:03;19.30;99.90
15959;DHT22;8078;47.822;9.402;2024-03-25T15:44:29;18.30;58.10
15959;DHT22;8078;47.822;9.402;2024-03-25T15:46:55;17.80;53.80
15959;DHT22;8078;47.822;9.402;2024-03-25T15:49:20;17.70;61.30
15959;DHT22;8078;47.822;9.402;2024-03-25T15:51:46;16.90;28.70
15959;DHT22;8078;47.822;9.402;2024-03-25T15:54:11;15.80;16.20
15959;DHT22;8078;47.822;9.402;2024-03-25T15:56:37;15.40;4.30
15959;DHT22;8078;47.822;9.402;2024-03-25T15:59:02;16.00;21.10